createdAt,value
2022-10-14T00:02:01.352Z,11.04
2022-10-14T00:05:02.887Z,11.04
2022-10-14T00:08:04.287Z,11.09
2022-10-14T00:11:06.352Z,11.10
2022-10-14T00:14:14.625Z,11.12
2022-10-14T00:17:16.025Z,11.12
2022-10-14T00:20:17.366Z,11.15
2022-10-14T00:23:19.040Z,11.13
2022-10-14T00:26:21.348Z,11.12
2022-10-14T00:29:22.742Z,11.14
2022-10-14T00:32:24.173Z,11.12
2022-10-14T00:35:25.655Z,11.12
2022-10-14T00:38:27.154Z,11.14
2022-10-14T00:41:29.446Z,11.13
2022-10-14T00:44:30.753Z,11.15
2022-10-14T00:47:32.197Z,11.15
2022-10-14T00:50:33.602Z,11.15
2022-10-14T00:53:34.948Z,11.14
2022-10-14T00:56:36.320Z,11.12
2022-10-14T00:59:37.749Z,11.16
2022-10-14T01:02:39.143Z,11.17
2022-10-14T01:05:41.319Z,11.15
2022-10-14T01:08:42.604Z,11.15
2022-10-14T01:12:27.001Z,11.16
2022-10-14T01:15:30.120Z,11.14
2022-10-14T01:18:34.501Z,11.16
2022-10-14T01:21:35.830Z,11.14
2022-10-14T01:24:40.854Z,11.16
2022-10-14T01:27:42.221Z,11.20
2022-10-14T01:30:47.238Z,11.18
2022-10-14T01:33:49.253Z,11.18
2022-10-14T01:36:52.496Z,11.16
2022-10-14T01:39:57.917Z,11.17
2022-10-14T01:42:59.301Z,11.17
2022-10-14T01:46:01.070Z,11.16
2022-10-14T01:49:03.711Z,11.17
2022-10-14T01:52:09.671Z,11.21
2022-10-14T01:55:12.450Z,11.19
2022-10-14T01:58:14.369Z,11.19
2022-10-14T02:01:15.764Z,11.21
2022-10-14T02:04:18.084Z,11.23
2022-10-14T02:07:24.537Z,11.22
2022-10-14T02:10:41.165Z,11.22
2022-10-14T02:13:45.505Z,11.23
2022-10-14T02:16:59.058Z,11.22
2022-10-14T02:20:00.598Z,11.19
2022-10-14T02:23:02.728Z,11.19
2022-10-14T02:26:04.091Z,11.20
2022-10-14T02:29:05.558Z,11.24
2022-10-14T02:32:06.897Z,11.24
2022-10-14T02:35:08.479Z,11.23
2022-10-14T02:38:09.921Z,11.22
2022-10-14T02:41:12.385Z,11.24
2022-10-14T02:44:13.767Z,11.25
2022-10-14T02:47:15.137Z,11.25
2022-10-14T02:50:18.953Z,11.25
2022-10-14T02:53:20.340Z,11.25
2022-10-14T02:56:21.699Z,11.34
2022-10-14T02:59:23.094Z,11.29
2022-10-14T03:02:24.543Z,11.27
2022-10-14T03:05:26.052Z,11.25
2022-10-14T03:08:27.413Z,11.26
2022-10-14T03:11:28.730Z,11.27
2022-10-14T03:14:30.114Z,11.31
2022-10-14T03:17:31.447Z,11.28
2022-10-14T03:20:32.766Z,11.29
2022-10-14T03:23:34.097Z,11.27
2022-10-14T03:26:35.421Z,11.28
2022-10-14T03:29:36.913Z,11.28
2022-10-14T03:32:38.251Z,11.26
2022-10-14T03:35:39.612Z,11.26
2022-10-14T03:38:40.995Z,11.33
2022-10-14T03:41:42.342Z,11.26
2022-10-14T03:44:44.720Z,11.26
2022-10-14T03:47:46.104Z,11.29
2022-10-14T03:50:47.633Z,11.29
2022-10-14T03:53:48.986Z,11.27
2022-10-14T03:56:50.914Z,11.22
2022-10-14T03:59:52.257Z,11.22
2022-10-14T04:02:53.640Z,11.22
2022-10-14T04:05:55.009Z,11.24
2022-10-14T04:08:56.349Z,11.22
2022-10-14T04:11:58.073Z,11.23
2022-10-14T04:14:59.424Z,11.19
2022-10-14T04:18:00.816Z,11.19
2022-10-14T04:21:11.749Z,11.23
2022-10-14T04:24:13.152Z,11.22
2022-10-14T04:27:14.497Z,11.19
2022-10-14T04:30:15.853Z,11.21
2022-10-14T04:33:17.230Z,11.21
2022-10-14T04:36:18.583Z,11.18
2022-10-14T04:39:19.993Z,11.19
2022-10-14T04:42:21.609Z,11.20
2022-10-14T04:45:23.218Z,11.19
2022-10-14T04:48:24.553Z,11.22
2022-10-14T04:51:25.927Z,11.21
2022-10-14T04:54:27.466Z,11.22
2022-10-14T04:57:28.824Z,11.18
2022-10-14T05:00:30.788Z,11.21
2022-10-14T05:03:32.144Z,11.20
2022-10-14T05:06:33.517Z,11.22
2022-10-14T05:09:35.157Z,11.23
2022-10-14T05:12:37.136Z,11.18
2022-10-14T05:15:38.471Z,11.18
2022-10-14T05:18:39.938Z,11.21
2022-10-14T05:21:41.268Z,11.20
2022-10-14T05:24:43.014Z,11.20
2022-10-14T05:27:44.375Z,11.23
2022-10-14T05:30:45.712Z,11.24
2022-10-14T05:33:47.135Z,11.23
2022-10-14T05:36:48.518Z,11.27
2022-10-14T05:39:50.200Z,11.27
2022-10-14T05:42:51.547Z,11.28
2022-10-14T05:45:52.908Z,11.29
2022-10-14T05:48:54.286Z,11.30
2022-10-14T05:51:55.650Z,11.31
2022-10-14T05:54:57.039Z,11.33
2022-10-14T05:57:58.386Z,11.34
2022-10-14T06:01:02.923Z,11.32
2022-10-14T06:04:04.246Z,11.35
2022-10-14T06:07:05.577Z,11.35
2022-10-14T06:10:07.070Z,11.34
2022-10-14T06:13:08.478Z,11.31
2022-10-14T06:16:09.896Z,11.33
2022-10-14T06:19:11.232Z,11.35
2022-10-14T06:22:12.576Z,11.38
2022-10-14T06:25:13.931Z,11.37
2022-10-14T06:28:15.358Z,11.40
2022-10-14T06:31:16.760Z,11.41
2022-10-14T06:34:20.058Z,11.44
2022-10-14T06:37:21.469Z,11.45
2022-10-14T06:40:22.822Z,11.48
2022-10-14T06:43:24.178Z,11.51
2022-10-14T06:46:25.651Z,11.57
2022-10-14T06:49:27.051Z,11.58
2022-10-14T06:52:28.392Z,11.64
2022-10-14T06:55:29.822Z,11.61
2022-10-14T06:58:31.250Z,11.67
2022-10-14T07:01:32.664Z,11.72
2022-10-14T07:04:34.057Z,11.72
2022-10-14T07:07:35.431Z,11.75
2022-10-14T07:10:36.780Z,11.81
2022-10-14T07:13:38.454Z,11.85
2022-10-14T07:16:39.865Z,11.87
2022-10-14T07:19:41.186Z,11.91
2022-10-14T07:22:42.769Z,11.94
2022-10-14T07:25:44.199Z,12.00
2022-10-14T07:28:45.792Z,12.03
2022-10-14T07:31:47.255Z,12.08
2022-10-14T07:34:48.624Z,12.09
2022-10-14T07:37:50.703Z,12.23
2022-10-14T07:41:02.100Z,12.27
2022-10-14T07:44:06.113Z,12.35
2022-10-14T07:47:07.532Z,12.26
2022-10-14T07:50:09.257Z,12.36
2022-10-14T07:53:10.614Z,12.31
2022-10-14T07:56:12.041Z,12.40
2022-10-14T07:59:13.414Z,12.42
2022-10-14T08:02:14.762Z,12.43
2022-10-14T08:05:37.189Z,12.49
2022-10-14T08:08:37.585Z,12.56
2022-10-14T08:11:38.993Z,12.59
2022-10-14T08:14:40.342Z,12.64
2022-10-14T08:17:41.717Z,12.68
2022-10-14T08:20:43.055Z,12.71
2022-10-14T08:23:44.481Z,12.71
2022-10-14T08:26:49.924Z,12.74
2022-10-14T08:29:51.284Z,12.74
2022-10-14T08:32:52.695Z,12.75
2022-10-14T08:35:54.369Z,12.87
2022-10-14T08:38:55.807Z,12.89
2022-10-14T08:42:03.287Z,12.96
2022-10-14T08:45:08.795Z,12.98
2022-10-14T08:48:11.735Z,13.12
2022-10-14T08:51:13.880Z,13.08
2022-10-14T08:54:16.107Z,13.01
2022-10-14T08:57:20.985Z,13.04
2022-10-14T09:00:22.426Z,13.05
2022-10-14T09:03:24.762Z,13.06
2022-10-14T09:06:26.818Z,13.08
2022-10-14T09:09:51.551Z,13.06
2022-10-14T09:12:53.648Z,13.12
2022-10-14T09:15:56.721Z,13.14
2022-10-14T09:18:58.031Z,13.02
2022-10-14T09:21:59.754Z,13.02
2022-10-14T09:25:01.286Z,12.98
2022-10-14T09:28:02.883Z,13.03
2022-10-14T09:31:08.254Z,13.01
2022-10-14T09:34:10.915Z,13.00
2022-10-14T09:37:30.767Z,13.04
2022-10-14T09:40:33.668Z,13.08
2022-10-14T09:43:35.174Z,13.21
2022-10-14T09:46:36.572Z,13.36
2022-10-14T09:49:41.684Z,13.43
2022-10-14T09:52:43.068Z,13.52
2022-10-14T09:56:06.224Z,13.84
2022-10-14T09:59:15.567Z,13.94
2022-10-14T10:02:20.897Z,14.01
2022-10-14T10:05:33.209Z,14.11
2022-10-14T10:08:38.733Z,14.21
2022-10-14T10:11:40.558Z,14.18
2022-10-14T10:14:41.886Z,14.40
2022-10-14T10:17:44.812Z,14.53
2022-10-14T10:20:46.162Z,14.61
2022-10-14T10:23:51.865Z,14.66
2022-10-14T10:26:53.241Z,14.75
2022-10-14T10:29:57.590Z,14.82
2022-10-14T10:33:05.017Z,14.87
2022-10-14T10:36:32.738Z,14.93
2022-10-14T10:39:34.028Z,15.13
2022-10-14T10:42:39.436Z,15.20
2022-10-14T10:45:54.897Z,15.37
2022-10-14T10:49:05.310Z,15.43
2022-10-14T10:52:28.371Z,15.58
2022-10-14T10:55:53.889Z,15.70
2022-10-14T10:59:21.853Z,15.86
2022-10-14T11:02:44.210Z,15.96
2022-10-14T11:06:04.651Z,16.03
2022-10-14T11:09:24.838Z,16.02
2022-10-14T11:12:26.149Z,16.14
2022-10-14T11:15:33.541Z,16.12
2022-10-14T11:18:50.892Z,16.30
2022-10-14T11:21:58.382Z,16.47
2022-10-14T11:25:03.112Z,16.39
2022-10-14T11:28:04.420Z,16.25
2022-10-14T11:31:08.442Z,16.47
2022-10-14T11:34:18.989Z,16.20
2022-10-14T11:37:26.443Z,16.11
2022-10-14T11:40:31.702Z,15.90
2022-10-14T11:43:39.475Z,15.96
2022-10-14T11:46:42.441Z,16.03
2022-10-14T11:50:00.291Z,16.09
2022-10-14T11:53:20.638Z,16.01
2022-10-14T11:56:25.074Z,16.01
2022-10-14T11:59:36.821Z,16.10
2022-10-14T12:02:44.170Z,16.14
2022-10-14T12:05:51.342Z,16.27
2022-10-14T12:08:55.184Z,16.38
2022-10-14T12:11:57.738Z,16.30
2022-10-14T12:15:00.214Z,16.39
2022-10-14T12:18:01.706Z,16.32
2022-10-14T12:21:03.156Z,16.24
2022-10-14T12:24:14.412Z,16.13
2022-10-14T12:27:15.856Z,16.10
2022-10-14T12:30:35.969Z,16.03
2022-10-14T12:33:45.957Z,16.10
2022-10-14T12:36:47.904Z,16.06
2022-10-14T12:39:49.278Z,16.06
2022-10-14T12:43:11.283Z,15.97
2022-10-14T12:46:13.385Z,15.92
2022-10-14T12:49:33.640Z,15.75
2022-10-14T12:52:38.486Z,15.74
2022-10-14T12:55:47.783Z,15.77
2022-10-14T12:58:57.337Z,15.72
2022-10-14T13:02:04.505Z,15.71
2022-10-14T13:05:07.194Z,15.63
2022-10-14T13:08:12.485Z,15.51
2022-10-14T13:11:14.044Z,15.50
2022-10-14T13:14:27.789Z,15.41
2022-10-14T13:17:29.223Z,15.35
2022-10-14T13:20:33.279Z,15.09
2022-10-14T13:23:36.582Z,15.06
2022-10-14T13:26:42.108Z,14.80
2022-10-14T13:29:46.422Z,14.85
2022-10-14T13:32:50.108Z,14.65
2022-10-14T13:35:51.389Z,14.67
2022-10-14T13:38:56.804Z,14.68
2022-10-14T13:41:58.362Z,14.60
2022-10-14T13:45:06.707Z,14.68
2022-10-14T13:48:19.730Z,14.48
2022-10-14T13:51:35.114Z,14.27
2022-10-14T13:54:37.780Z,14.29
2022-10-14T13:58:00.466Z,14.22
2022-10-14T14:01:01.939Z,14.25
2022-10-14T14:04:03.301Z,14.29
2022-10-14T14:07:35.207Z,14.24
2022-10-14T14:10:26.008Z,14.25
2022-10-14T14:13:30.825Z,14.25
2022-10-14T14:16:33.811Z,14.28
2022-10-14T14:19:35.717Z,14.28
2022-10-14T14:22:40.792Z,14.27
2022-10-14T14:26:01.098Z,14.33
2022-10-14T14:29:14.989Z,14.33
2022-10-14T14:32:17.488Z,14.31
2022-10-14T14:35:22.047Z,14.26
2022-10-14T14:38:34.544Z,14.19
2022-10-14T14:41:35.914Z,14.17
2022-10-14T14:44:37.347Z,14.14
2022-10-14T14:47:38.721Z,14.14
2022-10-14T14:50:42.888Z,14.17
2022-10-14T14:53:44.714Z,14.15
2022-10-14T14:56:47.361Z,14.16
2022-10-14T15:00:08.957Z,14.12
2022-10-14T15:03:10.326Z,14.02
2022-10-14T15:06:14.720Z,13.99
2022-10-14T15:09:17.990Z,13.82
2022-10-14T15:12:25.761Z,13.61
2022-10-14T15:15:32.271Z,13.71
2022-10-14T15:18:34.650Z,13.71
2022-10-14T15:21:35.998Z,13.73
2022-10-14T15:24:55.921Z,13.65
2022-10-14T15:27:57.876Z,13.71
2022-10-14T15:31:03.081Z,13.71
2022-10-14T15:34:11.926Z,13.64
2022-10-14T15:37:13.421Z,13.60
2022-10-14T15:40:15.701Z,13.56
2022-10-14T15:43:18.048Z,13.56
2022-10-14T15:46:38.141Z,13.49
2022-10-14T15:49:40.860Z,13.46
2022-10-14T15:52:42.299Z,13.41
2022-10-14T15:55:44.165Z,13.43
2022-10-14T15:58:45.525Z,13.41
2022-10-14T16:01:48.942Z,13.35
2022-10-14T16:05:18.389Z,13.18
2022-10-14T16:08:13.689Z,13.21
2022-10-14T16:11:19.882Z,13.24
2022-10-14T16:14:21.231Z,13.21
2022-10-14T16:17:22.843Z,13.14
2022-10-14T16:20:24.400Z,13.11
2022-10-14T16:23:29.601Z,13.05
2022-10-14T16:26:34.719Z,13.03
2022-10-14T16:29:36.456Z,13.00
2022-10-14T16:32:37.786Z,13.00
2022-10-14T16:35:39.172Z,12.98
2022-10-14T16:38:40.521Z,12.91
2022-10-14T16:41:41.966Z,12.92
2022-10-14T16:44:43.314Z,12.85
2022-10-14T16:47:44.653Z,12.83
2022-10-14T16:50:52.551Z,12.79
2022-10-14T16:53:55.275Z,12.81
2022-10-14T16:56:56.970Z,12.82
2022-10-14T16:59:58.989Z,12.84
2022-10-14T17:03:02.109Z,12.79
2022-10-14T17:06:03.504Z,12.77
2022-10-14T17:09:04.884Z,12.75
2022-10-14T17:12:09.369Z,12.76
2022-10-14T17:15:14.185Z,12.72
2022-10-14T17:18:17.720Z,12.72
2022-10-14T17:21:19.316Z,12.70
2022-10-14T17:24:20.735Z,12.72
2022-10-14T17:27:24.197Z,12.72
2022-10-14T17:30:25.561Z,12.67
2022-10-14T17:33:26.948Z,12.63
2022-10-14T17:36:28.418Z,12.62
2022-10-14T17:39:30.035Z,12.62
2022-10-14T17:42:31.422Z,12.56
2022-10-14T17:45:32.799Z,12.60
2022-10-14T17:48:36.709Z,12.61
2022-10-14T17:51:38.148Z,12.59
2022-10-14T17:54:39.493Z,12.63
2022-10-14T17:57:40.866Z,12.64
2022-10-14T18:00:42.352Z,12.68
2022-10-14T18:03:43.976Z,12.71
2022-10-14T18:06:45.484Z,12.71
2022-10-14T18:09:46.847Z,12.74
2022-10-14T18:12:48.271Z,12.77
2022-10-14T18:15:49.780Z,12.77
2022-10-14T18:18:51.258Z,12.83
2022-10-14T18:21:53.016Z,12.83
2022-10-14T18:24:54.484Z,12.89
2022-10-14T18:27:56.033Z,12.87
2022-10-14T18:30:57.539Z,12.91
2022-10-14T18:33:59.657Z,12.94
2022-10-14T18:37:01.171Z,12.90
2022-10-14T18:40:05.589Z,12.91
2022-10-14T18:43:07.505Z,12.94
2022-10-14T18:46:19.224Z,12.91
2022-10-14T18:49:20.742Z,12.94
2022-10-14T18:52:22.432Z,12.91
2022-10-14T18:55:24.078Z,12.90
2022-10-14T18:58:26.134Z,12.95
2022-10-14T19:01:29.177Z,12.99
2022-10-14T19:04:30.719Z,13.02
2022-10-14T19:07:32.343Z,13.01
2022-10-14T19:10:33.865Z,12.99
2022-10-14T19:13:38.698Z,12.99
2022-10-14T19:16:40.394Z,12.97
2022-10-14T19:19:42.485Z,12.96
2022-10-14T19:22:45.490Z,12.96
2022-10-14T19:25:49.654Z,12.95
2022-10-14T19:28:53.729Z,12.95
2022-10-14T19:31:55.369Z,13.01
2022-10-14T19:34:56.957Z,13.01
2022-10-14T19:37:58.499Z,13.00
2022-10-14T19:41:00.429Z,12.98
2022-10-14T19:44:04.111Z,12.97
2022-10-14T19:47:05.802Z,12.97
2022-10-14T19:50:07.506Z,12.96
2022-10-14T19:53:09.398Z,12.96
2022-10-14T19:56:11.455Z,12.94
2022-10-14T19:59:14.064Z,12.94
2022-10-14T20:02:15.580Z,12.97
2022-10-14T20:05:17.539Z,13.01
2022-10-14T20:08:18.993Z,13.01
2022-10-14T20:11:22.461Z,13.04
2022-10-14T20:14:24.202Z,13.03
2022-10-14T20:17:27.353Z,13.07
2022-10-14T20:20:29.041Z,13.11
2022-10-14T20:23:30.903Z,13.13
2022-10-14T20:26:32.977Z,13.15
2022-10-14T20:29:39.668Z,13.13
2022-10-14T20:32:43.558Z,13.13
2022-10-14T20:35:45.180Z,13.14
2022-10-14T20:38:47.432Z,13.20
2022-10-14T20:41:51.927Z,13.17
2022-10-14T20:44:53.375Z,13.16
2022-10-14T20:47:54.971Z,13.17
2022-10-14T20:50:56.638Z,13.16
2022-10-14T20:54:02.544Z,13.18
2022-10-14T20:57:05.786Z,13.16
2022-10-14T21:00:07.609Z,13.23
2022-10-14T21:03:09.104Z,13.20
2022-10-14T21:06:14.496Z,13.19
2022-10-14T21:09:18.828Z,13.23
2022-10-14T21:12:26.978Z,13.25
2022-10-14T21:15:28.651Z,13.25
2022-10-14T21:18:30.059Z,13.22
2022-10-14T21:21:38.673Z,13.20
2022-10-14T21:24:45.458Z,13.21
2022-10-14T21:27:46.925Z,13.24
2022-10-14T21:30:48.447Z,13.38
2022-10-14T21:34:02.742Z,13.40
2022-10-14T21:37:07.045Z,13.42
2022-10-14T21:40:12.645Z,13.39
2022-10-14T21:43:16.517Z,13.33
2022-10-14T21:46:18.152Z,13.34
2022-10-14T21:49:19.628Z,13.34
2022-10-14T21:52:21.639Z,13.31
2022-10-14T21:55:26.309Z,13.31
2022-10-14T21:58:27.795Z,13.29
2022-10-14T22:01:32.343Z,13.29
2022-10-14T22:04:38.322Z,13.28
2022-10-14T22:07:45.457Z,13.26
2022-10-14T22:10:47.751Z,13.34
2022-10-14T22:13:51.173Z,13.36
2022-10-14T22:16:52.638Z,13.37
2022-10-14T22:19:54.067Z,13.35
2022-10-14T22:22:55.644Z,13.37
2022-10-14T22:26:03.483Z,13.45
2022-10-14T22:29:05.853Z,13.44
2022-10-14T22:32:07.332Z,13.42
2022-10-14T22:35:14.715Z,13.46
2022-10-14T22:38:16.263Z,13.44
2022-10-14T22:41:17.995Z,13.45
2022-10-14T22:44:19.579Z,13.45
2022-10-14T22:47:21.462Z,13.43
2022-10-14T22:50:23.149Z,13.52
2022-10-14T22:53:25.066Z,13.50
2022-10-14T22:56:29.081Z,13.53
2022-10-14T22:59:33.290Z,13.49
2022-10-14T23:02:35.936Z,13.52
2022-10-14T23:05:37.440Z,13.51
2022-10-14T23:08:38.896Z,13.53
2022-10-14T23:11:40.544Z,13.55
2022-10-14T23:14:44.453Z,13.56
2022-10-14T23:17:47.435Z,13.58
2022-10-14T23:20:48.873Z,13.58
2022-10-14T23:23:53.176Z,13.66
2022-10-14T23:26:54.661Z,13.73
2022-10-14T23:29:56.261Z,13.75
2022-10-14T23:32:57.907Z,13.75
2022-10-14T23:36:02.626Z,13.72
2022-10-14T23:39:04.205Z,13.82
2022-10-14T23:42:05.705Z,13.79
2022-10-14T23:45:08.145Z,13.72
2022-10-14T23:48:09.818Z,13.71
2022-10-14T23:51:12.205Z,13.71
2022-10-14T23:54:16.342Z,13.69
2022-10-14T23:57:17.811Z,13.78
